createdAt,value
2022-12-12T00:00:57.466Z,79.63
2022-12-12T00:03:29.357Z,79.33
2022-12-12T00:05:57.469Z,79.14
2022-12-12T00:08:25.464Z,78.67
2022-12-12T00:10:53.874Z,79.11
2022-12-12T00:13:21.762Z,78.95
2022-12-12T00:15:50.210Z,78.45
2022-12-12T00:18:18.159Z,78.86
2022-12-12T00:20:52.768Z,79.09
2022-12-12T00:23:20.749Z,79.07
2022-12-12T00:25:55.567Z,78.33
2022-12-12T00:28:23.841Z,78.11
2022-12-12T00:30:51.862Z,78.00
2022-12-12T00:33:19.920Z,77.32
2022-12-12T00:35:51.300Z,77.62
2022-12-12T00:38:19.622Z,78.00
2022-12-12T00:40:47.753Z,78.24
2022-12-12T00:43:15.675Z,77.39
2022-12-12T00:45:43.725Z,77.71
2022-12-12T00:48:11.794Z,77.19
2022-12-12T00:50:39.734Z,78.57
2022-12-12T00:53:09.046Z,78.06
2022-12-12T00:55:37.038Z,78.98
2022-12-12T00:58:05.021Z,79.30
2022-12-12T01:00:33.433Z,79.40
2022-12-12T01:03:01.470Z,79.73
2022-12-12T01:05:29.999Z,79.28
2022-12-12T01:07:58.931Z,79.58
2022-12-12T01:10:28.258Z,78.79
2022-12-12T01:12:56.128Z,78.01
2022-12-12T01:15:24.251Z,77.86
2022-12-12T01:17:52.290Z,77.25
2022-12-12T01:20:25.397Z,77.98
2022-12-12T01:22:54.317Z,77.86
2022-12-12T01:25:22.517Z,77.66
2022-12-12T01:27:52.092Z,77.78
2022-12-12T01:30:23.108Z,78.60
2022-12-12T01:32:51.242Z,79.30
2022-12-12T01:35:19.900Z,79.16
2022-12-12T01:37:48.413Z,78.98
2022-12-12T01:40:19.930Z,78.57
2022-12-12T01:42:48.518Z,78.67
2022-12-12T01:46:22.327Z,78.64
2022-12-12T01:48:53.770Z,78.08
2022-12-12T01:51:26.376Z,78.22
2022-12-12T01:54:02.217Z,78.71
2022-12-12T01:56:30.444Z,77.86
2022-12-12T01:59:01.317Z,77.17
2022-12-12T02:01:31.288Z,78.00
2022-12-12T02:04:01.656Z,77.70
2022-12-12T02:06:30.857Z,77.42
2022-12-12T02:09:02.473Z,76.86
2022-12-12T02:11:30.750Z,76.58
2022-12-12T02:14:00.169Z,76.25
2022-12-12T02:16:50.748Z,76.73
2022-12-12T02:19:53.887Z,76.54
2022-12-12T02:22:34.771Z,76.65
2022-12-12T02:25:21.646Z,76.94
2022-12-12T02:28:09.199Z,76.42
2022-12-12T02:30:46.347Z,76.25
2022-12-12T02:33:33.343Z,76.94
2022-12-12T02:36:12.894Z,76.63
2022-12-12T02:38:56.467Z,76.50
2022-12-12T02:41:32.876Z,76.40
2022-12-12T02:44:12.218Z,76.98
2022-12-12T02:46:46.752Z,76.90
2022-12-12T02:49:22.131Z,75.96
2022-12-12T02:51:52.653Z,75.77
2022-12-12T02:54:23.290Z,76.21
2022-12-12T02:56:54.846Z,76.49
2022-12-12T02:59:29.187Z,75.86
2022-12-12T03:02:15.542Z,75.08
2022-12-12T03:05:20.280Z,75.48
2022-12-12T03:07:58.397Z,75.70
2022-12-12T03:10:43.199Z,75.38
2022-12-12T03:13:17.004Z,75.95
2022-12-12T03:16:06.622Z,76.37
2022-12-12T03:18:38.757Z,76.85
2022-12-12T03:21:13.953Z,77.39
2022-12-12T03:23:46.678Z,77.11
2022-12-12T03:26:19.026Z,77.45
2022-12-12T03:28:50.586Z,77.51
2022-12-12T03:31:22.507Z,77.38
2022-12-12T03:33:55.004Z,77.95
2022-12-12T03:36:28.450Z,77.92
2022-12-12T03:39:01.272Z,77.86
2022-12-12T03:41:36.248Z,77.64
2022-12-12T03:44:09.314Z,77.50
2022-12-12T03:46:42.352Z,76.45
2022-12-12T03:49:16.955Z,76.71
2022-12-12T03:51:52.231Z,76.82
2022-12-12T03:54:25.705Z,76.58
2022-12-12T03:56:58.909Z,76.91
2022-12-12T03:59:32.353Z,76.50
2022-12-12T04:02:04.928Z,76.80
2022-12-12T04:04:38.804Z,76.82
2022-12-12T04:07:14.970Z,76.48
2022-12-12T04:10:01.011Z,76.29
2022-12-12T04:12:57.530Z,76.46
2022-12-12T04:15:53.182Z,76.17
2022-12-12T04:18:32.761Z,75.28
2022-12-12T04:21:26.574Z,75.38
2022-12-12T04:24:03.977Z,76.14
2022-12-12T04:26:42.220Z,75.53
2022-12-12T04:29:42.341Z,76.34
2022-12-12T04:32:17.202Z,76.43
2022-12-12T04:34:49.925Z,75.90
2022-12-12T04:37:23.016Z,75.72
2022-12-12T04:39:55.610Z,76.02
2022-12-12T04:42:27.215Z,76.34
2022-12-12T04:45:00.248Z,76.21
2022-12-12T04:47:31.544Z,76.44
2022-12-12T04:50:01.679Z,77.15
2022-12-12T04:52:34.206Z,77.33
2022-12-12T04:55:08.204Z,77.38
2022-12-12T04:57:42.219Z,76.94
2022-12-12T05:00:13.981Z,78.21
2022-12-12T05:02:49.415Z,80.11
2022-12-12T05:05:22.380Z,80.05
2022-12-12T05:07:56.242Z,80.54
2022-12-12T05:10:25.610Z,80.87
2022-12-12T05:13:00.003Z,82.77
2022-12-12T05:15:29.960Z,83.01
2022-12-12T05:18:02.629Z,84.04
2022-12-12T05:20:30.595Z,84.71
2022-12-12T05:22:58.756Z,84.77
2022-12-12T05:25:28.062Z,84.81
2022-12-12T05:27:55.957Z,84.94
2022-12-12T05:30:24.721Z,85.93
2022-12-12T05:32:53.134Z,86.53
2022-12-12T05:35:21.442Z,86.30
2022-12-12T05:37:51.898Z,85.73
2022-12-12T05:40:21.592Z,86.74
2022-12-12T05:42:51.579Z,87.69
2022-12-12T05:45:20.044Z,87.69
2022-12-12T05:47:48.030Z,88.25
2022-12-12T05:50:15.937Z,87.88
2022-12-12T05:52:43.926Z,88.09
2022-12-12T05:55:12.294Z,87.29
2022-12-12T05:57:40.386Z,86.24
2022-12-12T06:00:11.218Z,87.54
2022-12-12T06:02:39.271Z,88.50
2022-12-12T06:05:07.876Z,86.99
2022-12-12T06:07:35.776Z,88.47
2022-12-12T06:10:03.689Z,89.89
2022-12-12T06:12:31.700Z,90.34
2022-12-12T06:14:59.651Z,89.65
2022-12-12T06:17:33.090Z,89.50
2022-12-12T06:20:01.754Z,89.47
2022-12-12T06:22:29.868Z,89.89
2022-12-12T06:24:57.838Z,90.26
2022-12-12T06:27:25.761Z,90.22
2022-12-12T06:29:53.638Z,90.45
2022-12-12T06:32:21.714Z,88.29
2022-12-12T06:34:51.371Z,88.28
2022-12-12T06:37:19.300Z,90.06
2022-12-12T06:39:47.386Z,89.12
2022-12-12T06:42:15.287Z,87.74
2022-12-12T06:44:43.286Z,87.21
2022-12-12T06:47:11.182Z,87.00
2022-12-12T06:49:39.376Z,86.42
2022-12-12T06:52:08.640Z,84.10
2022-12-12T06:54:37.718Z,83.41
2022-12-12T06:57:05.700Z,84.96
2022-12-12T06:59:33.708Z,84.39
2022-12-12T07:02:02.237Z,85.34
2022-12-12T07:04:30.351Z,87.47
2022-12-12T07:06:58.401Z,86.21
2022-12-12T07:09:28.386Z,86.20
2022-12-12T07:11:56.261Z,86.54
2022-12-12T07:14:24.112Z,84.89
2022-12-12T07:16:52.033Z,84.85
2022-12-12T07:19:19.957Z,84.93
2022-12-12T07:21:47.856Z,84.73
2022-12-12T07:24:16.569Z,83.37
2022-12-12T07:26:45.863Z,82.15
2022-12-12T07:29:13.982Z,83.24
2022-12-12T07:31:41.957Z,82.37
2022-12-12T07:34:09.942Z,82.70
2022-12-12T07:36:37.896Z,82.94
2022-12-12T07:39:05.887Z,82.76
2022-12-12T07:41:33.779Z,82.74
2022-12-12T07:44:03.163Z,83.79
2022-12-12T07:46:31.181Z,85.14
2022-12-12T07:48:59.204Z,85.09
2022-12-12T07:51:27.149Z,84.96
2022-12-12T07:53:55.082Z,84.79
2022-12-12T07:56:23.127Z,86.10
2022-12-12T07:58:53.402Z,85.74
2022-12-12T08:01:24.482Z,85.45
2022-12-12T08:03:53.125Z,86.03
2022-12-12T08:06:22.547Z,84.74
2022-12-12T08:08:51.502Z,84.55
2022-12-12T08:11:21.677Z,84.39
2022-12-12T08:13:49.783Z,82.97
2022-12-12T08:16:20.111Z,81.63
2022-12-12T08:18:50.131Z,82.50
2022-12-12T08:21:25.168Z,81.09
2022-12-12T08:23:56.705Z,80.32
2022-12-12T08:26:24.640Z,81.54
2022-12-12T08:28:52.540Z,80.74
2022-12-12T08:31:21.922Z,79.65
2022-12-12T08:33:51.854Z,79.46
2022-12-12T08:36:22.310Z,79.70
2022-12-12T08:38:50.781Z,79.75
2022-12-12T08:41:19.727Z,79.06
2022-12-12T08:43:47.648Z,79.39
2022-12-12T08:46:18.283Z,78.92
2022-12-12T08:48:46.827Z,79.90
2022-12-12T08:51:16.852Z,78.37
2022-12-12T08:53:45.824Z,77.55
2022-12-12T08:56:14.303Z,77.15
2022-12-12T08:58:42.420Z,77.48
2022-12-12T09:01:14.858Z,77.82
2022-12-12T09:03:42.777Z,77.48
2022-12-12T09:06:11.956Z,76.57
2022-12-12T09:08:42.321Z,74.73
2022-12-12T09:11:11.163Z,74.11
2022-12-12T09:13:39.470Z,74.01
2022-12-12T09:16:09.241Z,74.12
2022-12-12T09:18:40.804Z,72.70
2022-12-12T09:21:12.699Z,72.00
2022-12-12T09:23:42.146Z,74.17
2022-12-12T09:26:11.128Z,73.56
2022-12-12T09:28:39.299Z,71.28
2022-12-12T09:31:08.247Z,70.95
2022-12-12T09:33:36.423Z,71.21
2022-12-12T09:36:06.889Z,71.07
2022-12-12T09:38:35.512Z,71.18
2022-12-12T09:41:12.528Z,72.50
2022-12-12T09:43:47.430Z,70.12
2022-12-12T09:46:21.538Z,70.13
2022-12-12T09:48:49.446Z,70.88
2022-12-12T09:51:17.925Z,71.66
2022-12-12T09:53:47.980Z,71.46
2022-12-12T09:56:22.844Z,70.93
2022-12-12T09:58:57.256Z,69.43
2022-12-12T10:01:31.058Z,69.90
2022-12-12T10:04:11.532Z,70.86
2022-12-12T10:06:47.016Z,70.03
2022-12-12T10:09:54.867Z,68.27
2022-12-12T10:12:24.801Z,66.72
2022-12-12T10:14:55.876Z,67.15
2022-12-12T10:17:28.537Z,67.55
2022-12-12T10:20:00.310Z,67.73
2022-12-12T10:22:37.538Z,67.92
2022-12-12T10:25:16.929Z,66.98
2022-12-12T10:27:46.260Z,67.55
2022-12-12T10:30:19.826Z,67.09
2022-12-12T10:33:07.806Z,66.21
2022-12-12T10:35:44.473Z,66.98
2022-12-12T10:38:28.614Z,67.79
2022-12-12T10:41:00.879Z,68.12
2022-12-12T10:43:34.728Z,66.60
2022-12-12T10:46:28.152Z,66.05
2022-12-12T10:48:56.392Z,65.72
2022-12-12T10:51:27.637Z,66.95
2022-12-12T10:53:55.728Z,64.67
2022-12-12T10:56:24.728Z,63.64
2022-12-12T10:58:59.127Z,63.22
2022-12-12T11:02:07.560Z,61.82
2022-12-12T11:04:26.523Z,62.33
2022-12-12T11:06:56.404Z,62.79
2022-12-12T11:09:26.553Z,62.43
2022-12-12T11:12:02.503Z,62.74
2022-12-12T11:14:35.713Z,61.66
2022-12-12T11:17:19.877Z,62.83
2022-12-12T11:19:47.952Z,64.16
2022-12-12T11:22:16.851Z,63.07
2022-12-12T11:24:47.496Z,61.82
2022-12-12T11:27:22.384Z,61.82
2022-12-12T11:29:54.050Z,62.27
2022-12-12T11:32:25.506Z,62.87
2022-12-12T11:34:56.849Z,64.11
2022-12-12T11:37:29.102Z,64.78
2022-12-12T11:39:58.625Z,63.67
2022-12-12T11:42:29.672Z,64.15
2022-12-12T11:45:05.985Z,65.01
2022-12-12T11:47:41.157Z,65.60
2022-12-12T11:50:21.494Z,64.81
2022-12-12T11:52:50.822Z,64.92
2022-12-12T11:55:29.133Z,63.56
2022-12-12T11:58:16.651Z,66.20
2022-12-12T12:00:53.868Z,65.64
2022-12-12T12:03:28.408Z,66.49
2022-12-12T12:06:15.588Z,68.01
2022-12-12T12:08:58.904Z,69.05
2022-12-12T12:11:35.830Z,68.57
2022-12-12T12:14:41.985Z,68.85
2022-12-12T12:17:16.868Z,68.45
2022-12-12T12:19:54.968Z,68.56
2022-12-12T12:22:37.242Z,68.84
2022-12-12T12:25:25.185Z,68.42
2022-12-12T12:28:04.315Z,68.30
2022-12-12T12:30:42.810Z,68.89
2022-12-12T12:33:39.338Z,69.30
2022-12-12T12:36:20.880Z,69.52
2022-12-12T12:39:05.959Z,67.60
2022-12-12T12:41:50.170Z,68.90
2022-12-12T12:44:30.141Z,67.23
2022-12-12T12:47:06.408Z,67.63
2022-12-12T12:49:42.143Z,68.27
2022-12-12T12:52:15.487Z,67.63
2022-12-12T12:54:48.219Z,67.68
2022-12-12T12:57:20.841Z,67.27
2022-12-12T12:59:52.696Z,67.33
2022-12-12T13:02:27.241Z,67.14
2022-12-12T13:05:03.698Z,67.30
2022-12-12T13:07:41.391Z,67.86
2022-12-12T13:10:18.746Z,68.20
2022-12-12T13:12:53.331Z,69.25
2022-12-12T13:15:26.002Z,71.40
2022-12-12T13:18:01.305Z,71.22
2022-12-12T13:20:34.620Z,71.34
2022-12-12T13:23:35.012Z,71.84
2022-12-12T13:26:10.940Z,72.73
2022-12-12T13:28:44.920Z,72.86
2022-12-12T13:31:39.301Z,73.06
2022-12-12T13:34:11.201Z,73.13
2022-12-12T13:36:44.534Z,72.77
2022-12-12T13:39:26.326Z,72.54
2022-12-12T13:42:00.797Z,72.93
2022-12-12T13:44:41.227Z,73.44
2022-12-12T13:47:34.614Z,73.02
2022-12-12T13:50:07.772Z,72.41
2022-12-12T13:52:41.136Z,72.15
2022-12-12T13:55:29.962Z,72.33
2022-12-12T13:58:18.655Z,72.78
2022-12-12T14:00:47.384Z,73.92
2022-12-12T14:03:30.795Z,73.04
2022-12-12T14:06:11.848Z,72.78
2022-12-12T14:08:50.290Z,72.08
2022-12-12T14:11:32.766Z,73.29
2022-12-12T14:14:22.052Z,73.94
2022-12-12T14:16:55.809Z,74.08
2022-12-12T14:19:30.324Z,73.71
2022-12-12T14:21:58.383Z,73.78
2022-12-12T14:24:56.748Z,73.57
2022-12-12T14:28:03.462Z,73.48
2022-12-12T14:30:45.899Z,73.08
2022-12-12T14:34:01.648Z,74.38
2022-12-12T14:36:59.360Z,74.51
2022-12-12T14:39:55.116Z,74.40
2022-12-12T14:43:18.725Z,75.37
2022-12-12T14:45:36.281Z,76.48
2022-12-12T14:48:15.689Z,76.21
2022-12-12T14:50:48.889Z,77.56
2022-12-12T14:53:19.816Z,77.74
2022-12-12T14:55:55.521Z,78.02
2022-12-12T14:58:27.606Z,79.59
2022-12-12T15:00:58.738Z,80.18
2022-12-12T15:03:30.878Z,80.39
2022-12-12T15:06:21.445Z,79.75
2022-12-12T15:08:49.498Z,79.69
2022-12-12T15:11:23.790Z,79.06
2022-12-12T15:13:54.269Z,78.35
2022-12-12T15:16:28.391Z,77.89
2022-12-12T15:18:58.607Z,77.96
2022-12-12T15:21:27.549Z,77.78
2022-12-12T15:23:55.693Z,78.60
2022-12-12T15:26:30.127Z,77.83
2022-12-12T15:28:58.674Z,78.14
2022-12-12T15:31:26.895Z,79.07
2022-12-12T15:33:54.996Z,80.34
2022-12-12T15:36:27.737Z,82.35
2022-12-12T15:39:14.377Z,83.48
2022-12-12T15:41:44.339Z,84.12
2022-12-12T15:44:17.643Z,84.50
2022-12-12T15:46:47.191Z,84.55
2022-12-12T15:49:38.590Z,83.49
2022-12-12T15:52:13.078Z,84.46
2022-12-12T15:54:48.645Z,83.76
2022-12-12T15:57:20.442Z,82.84
2022-12-12T15:59:55.319Z,82.20
2022-12-12T16:02:28.720Z,81.61
2022-12-12T16:05:00.509Z,81.78
2022-12-12T16:07:28.986Z,82.96
2022-12-12T16:10:02.827Z,82.67
2022-12-12T16:13:00.261Z,83.01
2022-12-12T16:15:31.824Z,83.18
2022-12-12T16:18:02.370Z,83.80
2022-12-12T16:20:30.943Z,84.41
2022-12-12T16:23:11.817Z,83.68
2022-12-12T16:25:40.533Z,83.58
2022-12-12T16:28:25.610Z,83.87
2022-12-12T16:30:57.700Z,83.45
2022-12-12T16:33:30.654Z,83.42
2022-12-12T16:36:00.492Z,83.54
2022-12-12T16:38:29.496Z,83.25
2022-12-12T16:41:00.330Z,83.96
2022-12-12T16:43:29.799Z,83.89
2022-12-12T16:45:58.960Z,83.94
2022-12-12T16:48:28.926Z,83.63
2022-12-12T16:51:01.047Z,84.42
2022-12-12T16:53:28.991Z,84.96
2022-12-12T16:55:57.191Z,85.93
2022-12-12T16:58:25.590Z,85.75
2022-12-12T17:00:55.106Z,85.55
2022-12-12T17:03:24.868Z,84.58
2022-12-12T17:05:53.283Z,83.84
2022-12-12T17:08:21.387Z,82.97
2022-12-12T17:10:51.200Z,82.58
2022-12-12T17:13:22.085Z,82.17
2022-12-12T17:15:50.723Z,82.82
2022-12-12T17:18:20.176Z,82.37
2022-12-12T17:20:48.862Z,83.07
2022-12-12T17:23:30.266Z,82.30
2022-12-12T17:26:03.571Z,82.32
2022-12-12T17:28:33.737Z,82.36
2022-12-12T17:31:02.999Z,82.97
2022-12-12T17:33:32.336Z,82.56
2022-12-12T17:36:01.814Z,82.60
2022-12-12T17:38:30.516Z,83.34
2022-12-12T17:40:58.955Z,84.34
2022-12-12T17:43:27.230Z,83.46
2022-12-12T17:45:59.853Z,83.10
2022-12-12T17:48:29.404Z,82.24
2022-12-12T17:51:01.048Z,82.52
2022-12-12T17:53:32.378Z,83.07
2022-12-12T17:56:01.744Z,82.72
2022-12-12T17:58:36.361Z,83.04
2022-12-12T18:01:11.143Z,84.07
2022-12-12T18:03:39.157Z,84.20
2022-12-12T18:06:09.322Z,84.18
2022-12-12T18:08:37.272Z,83.67
2022-12-12T18:11:07.797Z,83.90
2022-12-12T18:13:36.029Z,83.51
2022-12-12T18:16:04.129Z,83.30
2022-12-12T18:18:32.425Z,83.30
2022-12-12T18:21:04.684Z,83.40
2022-12-12T18:23:34.046Z,83.40
2022-12-12T18:26:05.954Z,82.88
2022-12-12T18:28:34.163Z,82.98
2022-12-12T18:31:02.595Z,83.25
2022-12-12T18:33:30.799Z,83.46
2022-12-12T18:36:03.782Z,83.67
2022-12-12T18:38:33.381Z,84.91
2022-12-12T18:41:02.007Z,84.68
2022-12-12T18:43:31.412Z,84.32
2022-12-12T18:46:03.765Z,85.43
2022-12-12T18:48:33.748Z,84.69
2022-12-12T18:51:06.118Z,85.83
2022-12-12T18:53:35.637Z,84.97
2022-12-12T18:56:06.453Z,85.46
2022-12-12T18:58:34.696Z,85.41
2022-12-12T19:01:07.090Z,87.03
2022-12-12T19:03:39.291Z,88.78
2022-12-12T19:06:09.024Z,88.64
2022-12-12T19:08:38.812Z,87.61
2022-12-12T19:11:08.025Z,88.45
2022-12-12T19:13:36.187Z,89.75
2022-12-12T19:16:05.697Z,90.81
2022-12-12T19:18:33.871Z,90.63
2022-12-12T19:21:06.429Z,90.36
2022-12-12T19:23:34.963Z,91.82
2022-12-12T19:26:08.320Z,92.85
2022-12-12T19:28:36.308Z,94.19
2022-12-12T19:31:07.721Z,93.62
2022-12-12T19:33:36.384Z,94.17
2022-12-12T19:36:10.984Z,94.97
2022-12-12T19:38:38.929Z,94.24
2022-12-12T19:41:09.538Z,94.26
2022-12-12T19:43:37.710Z,93.46
2022-12-12T19:46:08.119Z,94.31
2022-12-12T19:48:36.849Z,95.28
2022-12-12T19:51:06.714Z,95.18
2022-12-12T19:53:37.694Z,95.35
2022-12-12T19:56:06.872Z,95.43
2022-12-12T19:58:38.889Z,95.89
2022-12-12T20:01:09.082Z,95.13
2022-12-12T20:03:37.172Z,96.86
2022-12-12T20:06:07.406Z,97.51
2022-12-12T20:08:36.435Z,97.64
2022-12-12T20:11:06.006Z,98.05
2022-12-12T20:13:34.480Z,99.00
2022-12-12T20:16:09.482Z,99.21
2022-12-12T20:18:37.971Z,98.14
2022-12-12T20:21:06.696Z,99.25
2022-12-12T20:23:36.512Z,99.20
2022-12-12T20:26:05.460Z,99.33
2022-12-12T20:28:33.705Z,100.00
2022-12-12T20:31:08.576Z,100.00
2022-12-12T20:33:36.958Z,97.76
2022-12-12T20:36:05.756Z,97.52
2022-12-12T20:38:34.848Z,97.43
2022-12-12T20:41:03.165Z,96.94
2022-12-12T20:43:31.302Z,96.69
2022-12-12T20:45:59.563Z,97.72
2022-12-12T20:48:29.767Z,99.90
2022-12-12T20:51:01.583Z,100.00
2022-12-12T20:53:34.816Z,100.00
2022-12-12T20:56:10.556Z,100.00
2022-12-12T20:58:39.886Z,100.00
2022-12-12T21:01:14.858Z,100.00
2022-12-12T21:03:45.749Z,100.00
2022-12-12T21:06:14.441Z,100.00
2022-12-12T21:08:43.296Z,100.00
2022-12-12T21:11:11.394Z,100.00
2022-12-12T21:13:39.401Z,100.00
2022-12-12T21:16:11.405Z,100.00
2022-12-12T21:18:39.892Z,100.00
2022-12-12T21:21:11.925Z,100.00
2022-12-12T21:23:40.223Z,100.00
2022-12-12T21:26:13.275Z,100.00
2022-12-12T21:28:45.217Z,100.00
2022-12-12T21:31:17.659Z,100.00
2022-12-12T21:33:46.529Z,100.00
2022-12-12T21:36:18.335Z,100.00
2022-12-12T21:38:46.335Z,100.00
2022-12-12T21:41:16.771Z,100.00
2022-12-12T21:43:46.035Z,99.98
2022-12-12T21:46:15.697Z,98.08
2022-12-12T21:48:43.858Z,96.90
2022-12-12T21:51:16.593Z,98.08
2022-12-12T21:53:44.470Z,98.58
2022-12-12T21:56:14.421Z,99.61
2022-12-12T21:58:43.467Z,99.07
2022-12-12T22:01:14.941Z,99.49
2022-12-12T22:03:43.468Z,100.00
2022-12-12T22:06:12.808Z,100.00
2022-12-12T22:08:42.829Z,100.00
2022-12-12T22:11:11.990Z,100.00
2022-12-12T22:13:40.496Z,100.00
2022-12-12T22:16:12.777Z,100.00
2022-12-12T22:18:41.352Z,100.00
2022-12-12T22:21:11.126Z,100.00
2022-12-12T22:23:41.453Z,100.00
2022-12-12T22:26:17.066Z,100.00
2022-12-12T22:28:44.978Z,100.00
2022-12-12T22:31:12.944Z,100.00
2022-12-12T22:33:40.975Z,100.00
2022-12-12T22:36:10.872Z,100.00
2022-12-12T22:38:39.290Z,99.58
2022-12-12T22:41:09.042Z,99.39
2022-12-12T22:43:37.377Z,100.00
2022-12-12T22:46:06.826Z,98.96
2022-12-12T22:48:36.017Z,99.53
2022-12-12T22:51:13.562Z,100.00
2022-12-12T22:53:44.313Z,100.00
2022-12-12T22:56:14.724Z,100.00
2022-12-12T22:58:43.289Z,100.00
2022-12-12T23:01:13.454Z,100.00
2022-12-12T23:03:41.668Z,99.91
2022-12-12T23:06:13.377Z,100.00
2022-12-12T23:08:41.505Z,100.00
2022-12-12T23:11:11.529Z,100.00
2022-12-12T23:13:43.481Z,100.00
2022-12-12T23:16:13.951Z,99.64
2022-12-12T23:18:42.448Z,98.90
2022-12-12T23:21:16.763Z,98.05
2022-12-12T23:23:45.705Z,97.63
2022-12-12T23:26:15.420Z,97.59
2022-12-12T23:28:44.911Z,96.85
2022-12-12T23:31:15.677Z,96.06
2022-12-12T23:33:43.749Z,95.40
2022-12-12T23:36:12.552Z,94.32
2022-12-12T23:38:40.908Z,93.40
2022-12-12T23:41:10.872Z,92.43
2022-12-12T23:43:39.083Z,91.52
2022-12-12T23:46:28.143Z,91.77
2022-12-12T23:48:57.732Z,91.91
2022-12-12T23:51:26.857Z,91.36
2022-12-12T23:53:56.333Z,91.04
2022-12-12T23:56:24.331Z,90.98
2022-12-12T23:58:53.423Z,92.07
